KSOW

Details ICAO KSOW (SOW)
Name SHOW LOW RGNL
Region United States
Timezone America/Phoenix (UTC-7.0)
Plans Departing 3
Arriving 4
Stats Elevation 6,415 ft / 1,955 m (AMSL)
Location 34.265180° -110.004980°
Runways 2
Magnetic Variation 9.771° E
Sunrise 2017-12-17 14:21:34 UTC / 2017-12-17 07:21:34 Local
Sunset 2017-12-18 00:13:45 UTC / 2017-12-17 17:13:45 Local
Advertisement - Login to hide

Runways

ID Width Length Bearing (true) Bearing (mag) Surface Threshold Offset Overrun Length
03 59 ft / 18 m 3,941 ft / 1,201 m 47.66° 37.89° Asphalt 0 ft / 0 m 0 ft / 0 m
06 98 ft / 30 m 7,207 ft / 2,197 m 75.91° 66.14° Asphalt 699 ft / 213 m 0 ft / 0 m
21 59 ft / 18 m 3,941 ft / 1,201 m 227.67° 217.90° Asphalt 0 ft / 0 m 0 ft / 0 m
24 98 ft / 30 m 7,207 ft / 2,197 m 255.92° 246.15° Asphalt 751 ft / 229 m 0 ft / 0 m

Map

Weather


0- 5 10 15 20 25 30 35+ Temperature / ° C

Clouds and Precipitation
Forecast for 2017-12-18 06:00 UTC. Updated a minute ago

Ground ~20,000 ft ~40,000 ft Winds

METAR

KSOW 180515Z AUTO 00000KT 10SM BKN050 BKN055 OVC065 02/01 A3009 RMK AO2

TAF

Not found

Frequencies

Recorded 118.07 MHz AWOS 3
Unicom 123.00 MHz CTAF/UNICOM
Warning: Do not use this data for real-world aviation or navigation. No guarantee of current accuracy is given.